PWSweather.com
Personal Weather Stations
Station Observations
STPETERS
BroadstairsGB

BroadstairsGB

Lat: 51.37, Lon: 1.423

Elevation: 141

Station Type: WH1081

Latest ConditionsUpdated 4:45:00 AM GMT Friday, Jan 30, 2015
Currently Today's Max Today's Min Today's Average
Temperature 33.3°F0.7°C 35.8°F2.1°C 33.3°F0.7°C 35.0°F1.7°C
Dew Point 32.3°F0.2°C 34.3°F1.3°C 31.7°F-0.2°C 33.4°F0.8°C
Winds Calm Calm 12.7 mph WNW20.4 kmh WNW - 9.2 mph 14.8 kmh
Wind Gusts -- 16.8 mph27.0 kmh - -
Humidity 96% 97% 90% 94%
Pressure 28.84 in976.6 mb 28.86 in977.3 mb 28.84 in976.6 mb -
Precipitation - 0.01 in0.3 mm - -
Hour Temp Dew Point Humidity Winds Wind Gusts Pressure Precip Precip Rate Daily Precip Total
04:45 AM 33.3°F0.7°C 32.3°F0.2°C 96% Calm Calm -- 28.84 in976.6 mb 0.01 in0.3 mm 0.00 in/hr0.0 mm/hr 0.01 in0.3 mm
04:30 AM 33.3°F0.7°C 31.7°F-0.2°C 94% 0.8 mph NW1.3 kmh NW 6.0 mph9.7 kmh 28.84 in976.6 mb 0.01 in0.3 mm 0.00 in/hr0.0 mm/hr 0.01 in0.3 mm
04:15 AM 34.7°F1.5°C 33.2°F0.7°C 94% 9.7 mph WNW15.6 kmh WNW 13.6 mph21.9 kmh 28.85 in977.0 mb 0.01 in0.3 mm 0.04 in/hr1.0 mm/hr 0.01 in0.3 mm
04:00 AM 35.6°F2.0°C 34.1°F1.2°C 94% 10.9 mph WNW17.5 kmh WNW 15.2 mph24.5 kmh 28.84 in976.6 mb 0.00 in0.0 mm 0.00 in/hr0.0 mm/hr 0.01 in0.3 mm
03:45 AM 35.8°F2.1°C 34.0°F1.1°C 93% 10.0 mph W16.1 kmh W 13.6 mph21.9 kmh 28.84 in976.6 mb 0.00 in0.0 mm 0.00 in/hr0.0 mm/hr 0.01 in0.3 mm
03:30 AM 35.8°F2.1°C 33.7°F0.9°C 92% 10.3 mph WNW16.6 kmh WNW 13.6 mph21.9 kmh 28.84 in976.6 mb 0.00 in0.0 mm 0.00 in/hr0.0 mm/hr 0.01 in0.3 mm
03:15 AM 35.8°F2.1°C 33.7°F0.9°C 92% 10.0 mph W16.1 kmh W 14.5 mph23.3 kmh 28.85 in977.0 mb 0.00 in0.0 mm 0.00 in/hr0.0 mm/hr 0.01 in0.3 mm
03:00 AM 35.6°F2.0°C 33.8°F1.0°C 93% 9.4 mph W15.1 kmh W 13.6 mph21.9 kmh 28.85 in977.0 mb 0.00 in0.0 mm 0.00 in/hr0.0 mm/hr 0.01 in0.3 mm
02:45 AM 35.2°F1.8°C 33.4°F0.8°C 93% 8.2 mph WNW13.2 kmh WNW 14.5 mph23.3 kmh 28.86 in977.3 mb 0.00 in0.0 mm 0.00 in/hr0.0 mm/hr 0.01 in0.3 mm
02:30 AM 34.9°F1.6°C 33.1°F0.6°C 93% 7.7 mph WNW12.4 kmh WNW 11.4 mph18.3 kmh 28.86 in977.3 mb 0.00 in0.0 mm 0.00 in/hr0.0 mm/hr 0.01 in0.3 mm
02:15 AM 34.5°F1.4°C 32.7°F0.4°C 93% 8.3 mph NW13.4 kmh NW 9.8 mph15.8 kmh 28.86 in977.3 mb 0.00 in0.0 mm 0.00 in/hr0.0 mm/hr 0.01 in0.3 mm
02:00 AM 34.7°F1.5°C 32.9°F0.5°C 93% 8.1 mph WNW13.0 kmh WNW 9.8 mph15.8 kmh 28.86 in977.3 mb 0.00 in0.0 mm 0.00 in/hr0.0 mm/hr 0.01 in0.3 mm
01:45 AM 35.2°F1.8°C 33.7°F0.9°C 94% 10.0 mph WNW16.1 kmh WNW 14.5 mph23.3 kmh 28.86 in977.3 mb 0.00 in0.0 mm 0.00 in/hr0.0 mm/hr 0.01 in0.3 mm
01:30 AM 35.4°F1.9°C 34.1°F1.2°C 95% 10.7 mph NW17.2 kmh NW 13.6 mph21.9 kmh 28.86 in977.3 mb 0.00 in0.0 mm 0.00 in/hr0.0 mm/hr 0.01 in0.3 mm
01:15 AM 35.2°F1.8°C 34.2°F1.2°C 96% 10.3 mph WNW16.6 kmh WNW 16.8 mph27.0 kmh 28.86 in977.3 mb 0.00 in0.0 mm 0.00 in/hr0.0 mm/hr 0.01 in0.3 mm
01:00 AM 35.1°F1.7°C 34.3°F1.3°C 97% 12.3 mph W19.8 kmh W 15.2 mph24.5 kmh 28.86 in977.3 mb 0.00 in0.0 mm 0.00 in/hr0.0 mm/hr 0.01 in0.3 mm
12:45 AM 34.9°F1.6°C 33.9°F1.1°C 96% 12.2 mph WNW19.6 kmh WNW 15.2 mph24.5 kmh 28.86 in977.3 mb 0.00 in0.0 mm 0.00 in/hr0.0 mm/hr 0.01 in0.3 mm
12:30 AM 34.7°F1.5°C 33.4°F0.8°C 95% 12.7 mph WNW20.4 kmh WNW 15.9 mph25.6 kmh 28.84 in976.6 mb 0.01 in0.3 mm 0.00 in/hr0.0 mm/hr 0.01 in0.3 mm
12:15 AM 34.7°F1.5°C 32.9°F0.5°C 93% 11.5 mph NW18.5 kmh NW 15.2 mph24.5 kmh 28.84 in976.6 mb 0.01 in0.3 mm 0.00 in/hr0.0 mm/hr 0.01 in0.3 mm
12:00 AM 35.1°F1.7°C 32.4°F0.2°C 90% 10.8 mph NW17.4 kmh NW 15.9 mph25.6 kmh 28.84 in976.6 mb 0.01 in0.3 mm 0.00 in/hr0.0 mm/hr 0.01 in0.3 mm